Vashon, WA (98070)

12:39 PM PST on February 13, 2016 (GMT -0800)
Voice of Vashon | | Change Station
CLOSE
Current Station
Personal Weather Station
Location: Vashon, WA
Elevation: 400 ft
Nearby Weather Stations

Elev 400 ft 47.42 °N, 122.46 °W | Updated 29 seconds ago

Rain
Rain
48.0 °F
Feels Like 47 °F
N
4.0
Wind Variable Wind from SSW
Gusts 6.9 mph

Today
High -- | Low -- °F
--% Chance of Precip.
Yesterday
High -- | Low -- °F
Precip. -- in
Pressure 30.24 in
Visibility 10.0 miles
Clouds Mostly Cloudy 4400 ft
Overcast 5000 ft
Windchill 47 °F
Dew Point 45 °F
Humidity 90%
Rainfall 0.23 in
Snow Depth Not available.
7:18 AM 5:29 PM
Waxing Crescent, 34% visible
METAR KSEA 131953Z 16007KT 10SM BKN044 OVC050 10/05 A3022 RMK AO2 SLP239 T01000050
Pressure 30.24 in
Visibility 10.0 miles
Clouds Mostly Cloudy 4400 ft
Overcast 5000 ft
Windchill 47 °F
Dew Point 45 °F
Humidity 90%
Rainfall 0.23 in
Snow Depth Not available.
7:18 AM 5:29 PM
Waxing Crescent, 34% visible
METAR KSEA 131953Z 16007KT 10SM BKN044 OVC050 10/05 A3022 RMK AO2 SLP239 T01000050

10-Day Weather Forecast

Almanac

Astronomy

Feb. 13, 2016 Rise Set
Actual Time
Civil Twilight
Nautical Twilight
Astronomical Twilight
Moon
Length of Visible Light
Length of Day
Tomorrow will be .
, % of the Moon is Illuminated

Today's Extremes

State Highs State Lows

Community

WunderPhotos

Upload Photos

1,892,664 photos uploaded!

WunderBlog® & News

Nearby

Air Quality

  Air Quality AQ Index Pollutant
Not available.

Snow Depth

Station Depth Elevation

Earthquake Activity

City Distance Mag. Time & Date
Minimum magnitude displayed is 2.5.

Coastal Water Temperatures

Place Temperature

Stations

Nearby Weather Stations

Station Location Temp. Windchill Dew Point Humidity Wind Precip. Elev Updated Type
                   

Watches & Warnings

There are currently no watches in effect.